Time;durP1;ratioP1;P1;durP2;ratioP2;P2;SDS_P1;SDS_P2;PMS_P1;PMS_P2;Temp;Humidity;BMP_temperature;BMP_pressure;BME280_temperature;BME280_humidity;BME280_pressure;Samples;Min_cycle;Max_cycle;Signal;HPM_P1;HPM_P2
2020/12/14 00:02:29;;;;;;;93.53;46.13;;;;;;;6.11;100.00;97069.34;4794154;29;20054;-85
2020/12/14 00:04:56;;;;;;;86.47;44.60;;;;;;;6.14;100.00;97085.13;4945549;28;20050;-84
2020/12/14 00:07:22;;;;;;;99.53;47.90;;;;;;;6.13;100.00;97086.03;4999135;28;20562;-84
2020/12/14 00:10:37;;;;;;;;;;;;;;;;;;;;;
2020/12/14 00:20:05;;;;;;;82.22;42.33;;;;;;;6.16;100.00;97088.53;4944528;29;20094;-85
2020/12/14 00:22:34;;;;;;;78.85;41.70;;;;;;;6.17;100.00;97099.09;4996377;28;20177;-86
2020/12/14 00:25:01;;;;;;;78.70;40.75;;;;;;;6.11;100.00;97106.50;5004188;28;20029;-85
2020/12/14 00:27:27;;;;;;;81.55;41.10;;;;;;;6.14;100.00;97103.69;5007893;28;20033;-86
2020/12/14 00:29:53;;;;;;;68.25;37.22;;;;;;;6.19;100.00;97110.47;4998745;28;20033;-85
2020/12/14 00:32:18;;;;;;;66.85;37.45;;;;;;;6.17;100.00;97084.94;5004290;28;20053;-85
2020/12/14 00:34:44;;;;;;;56.58;28.95;;;;;;;6.22;100.00;97097.03;4987242;28;20064;-85
2020/12/14 00:37:10;;;;;;;56.28;27.80;;;;;;;6.17;100.00;97098.22;4998672;28;20397;-85
2020/12/14 00:39:35;;;;;;;51.65;29.02;;;;;;;6.05;100.00;97098.84;4998202;28;20123;-85
2020/12/14 00:42:02;;;;;;;63.30;32.65;;;;;;;6.11;100.00;97110.03;4989699;28;20401;-86
2020/12/14 00:44:27;;;;;;;57.95;31.38;;;;;;;6.09;100.00;97111.06;4987968;28;20096;-85
2020/12/14 00:46:53;;;;;;;63.63;33.28;;;;;;;5.98;100.00;97119.53;5004103;28;20033;-86
2020/12/14 00:49:18;;;;;;;60.97;34.30;;;;;;;5.97;100.00;97116.03;4979493;28;20049;-86
2020/12/14 00:51:44;;;;;;;57.88;31.00;;;;;;;6.13;100.00;97126.72;4987331;28;20109;-85
2020/12/14 00:54:11;;;;;;;61.58;32.35;;;;;;;6.13;100.00;97124.06;4995047;28;20108;-86
2020/12/14 00:56:38;;;;;;;49.88;28.10;;;;;;;6.29;100.00;97137.41;4977878;28;20033;-85
2020/12/14 00:59:04;;;;;;;48.10;25.48;;;;;;;6.25;100.00;97122.56;4995146;28;20512;-85
2020/12/14 01:01:30;;;;;;;49.63;26.10;;;;;;;6.28;100.00;97136.56;4995048;28;20046;-85
2020/12/14 01:03:55;;;;;;;50.72;25.67;;;;;;;6.27;100.00;97128.69;5011208;28;20030;-85
2020/12/14 01:06:21;;;;;;;57.55;27.45;;;;;;;6.34;100.00;97136.25;4982413;28;20018;-84
2020/12/14 01:08:47;;;;;;;52.33;28.38;;;;;;;6.38;100.00;97129.84;4982657;28;20033;-85
2020/12/14 01:11:13;;;;;;;48.22;27.63;;;;;;;6.48;100.00;97151.47;4993929;28;20527;-85
2020/12/14 01:13:40;;;;;;;48.85;27.95;;;;;;;6.45;100.00;97133.91;4992470;28;20512;-85
2020/12/14 01:16:09;;;;;;;56.63;27.92;;;;;;;6.48;100.00;97146.16;4986464;28;20467;-85
2020/12/14 01:18:38;;;;;;;49.50;28.60;;;;;;;6.54;100.00;97159.13;5008356;28;20029;-85
2020/12/14 01:21:44;;;;;;;;;;;;;;;;;;;;;
2020/12/14 01:24:58;;;;;;;;;;;;;;;;;;;;;
2020/12/14 01:30:58;;;;;;;47.35;25.15;;;;;;;6.41;100.00;97150.94;5000159;28;20516;-85
2020/12/14 01:33:24;;;;;;;54.63;27.45;;;;;;;6.37;100.00;97167.09;4991464;28;20025;-85
2020/12/14 01:35:49;;;;;;;59.58;30.55;;;;;;;6.35;100.00;97163.66;5012122;28;20035;-85
2020/12/14 01:38:15;;;;;;;62.60;33.00;;;;;;;6.30;100.00;97168.38;4992715;28;20382;-85
2020/12/14 01:40:41;;;;;;;60.08;31.90;;;;;;;6.33;100.00;97179.69;4994293;28;20034;-85
2020/12/14 01:43:07;;;;;;;55.10;28.17;;;;;;;6.33;100.00;97169.06;4978436;28;20030;-85
2020/12/14 01:45:33;;;;;;;53.58;28.02;;;;;;;6.22;100.00;97175.84;4984833;28;20037;-85
2020/12/14 01:48:02;;;;;;;51.55;26.17;;;;;;;6.20;100.00;97170.63;5014249;28;20029;-86
2020/12/14 01:50:28;;;;;;;52.00;26.73;;;;;;;6.23;100.00;97177.56;4999754;28;20064;-86
2020/12/14 01:52:57;;;;;;;55.03;26.33;;;;;;;6.18;100.00;97169.84;4979815;28;20065;-86
2020/12/14 01:55:23;;;;;;;47.80;24.83;;;;;;;6.32;100.00;97177.97;4984481;28;20028;-86
2020/12/14 01:57:49;;;;;;;39.55;19.48;;;;;;;6.33;100.00;97165.56;4994695;28;20457;-87
2020/12/14 02:00:15;;;;;;;34.92;19.10;;;;;;;6.37;100.00;97175.94;5003104;28;20129;-86
2020/12/14 02:02:40;;;;;;;29.38;15.68;;;;;;;6.39;100.00;97178.50;4983428;28;20409;-85
2020/12/14 02:05:07;;;;;;;29.00;15.18;;;;;;;6.29;100.00;97170.16;5013539;28;20440;-85
2020/12/14 02:07:34;;;;;;;27.63;14.93;;;;;;;6.21;100.00;97166.19;4982511;28;20033;-85
2020/12/14 02:09:59;;;;;;;28.20;14.95;;;;;;;6.35;100.00;97187.56;5002317;28;20037;-86
2020/12/14 02:12:27;;;;;;;38.90;19.48;;;;;;;6.32;100.00;97183.28;4983410;28;20025;-85
2020/12/14 02:14:55;;;;;;;41.78;19.33;;;;;;;6.39;100.00;97186.47;5012970;28;20041;-85
2020/12/14 02:17:22;;;;;;;38.70;18.83;;;;;;;6.42;100.00;97189.84;4990875;28;20349;-85
2020/12/14 02:19:48;;;;;;;35.08;17.33;;;;;;;6.40;100.00;97186.38;4988899;28;20026;-86
2020/12/14 02:22:17;;;;;;;32.63;17.80;;;;;;;6.39;100.00;97178.50;4997322;28;20029;-86
2020/12/14 02:25:04;;;;;;;30.65;16.38;;;;;;;6.42;100.00;97188.97;4997318;28;20404;-85
2020/12/14 02:27:31;;;;;;;32.60;17.23;;;;;;;6.29;100.00;97171.94;5007684;28;20018;-85
2020/12/14 02:30:57;;;;;;;;;;;;;;;;;;;;;
2020/12/14 02:40:43;;;;;;;18.80;8.60;;;;;;;6.08;100.00;97179.22;4829718;29;20109;-85
2020/12/14 02:43:08;;;;;;;22.02;9.73;;;;;;;6.04;100.00;97174.13;4914436;29;20035;-86
2020/12/14 02:45:36;;;;;;;18.00;9.38;;;;;;;6.17;100.00;97191.16;4939313;28;20048;-86
2020/12/14 02:48:04;;;;;;;15.90;8.32;;;;;;;6.17;100.00;97177.88;5006722;28;20045;-86
2020/12/14 02:50:30;;;;;;;17.05;8.85;;;;;;;6.19;100.00;97181.31;4989644;28;20116;-86
2020/12/14 02:52:56;;;;;;;21.67;10.60;;;;;;;6.15;100.00;97174.47;5014325;28;20484;-86
2020/12/14 02:55:22;;;;;;;20.17;9.90;;;;;;;6.13;100.00;97184.28;4996913;28;20025;-86
2020/12/14 02:57:47;;;;;;;19.90;10.63;;;;;;;6.16;100.00;97179.69;4980293;28;20410;-86
2020/12/14 03:00:13;;;;;;;25.50;13.70;;;;;;;6.09;100.00;97196.00;4981842;28;20053;-85
2020/12/14 03:02:39;;;;;;;34.88;17.88;;;;;;;5.84;100.00;97186.56;4996936;28;20052;-85
2020/12/14 03:05:04;;;;;;;31.83;16.92;;;;;;;5.83;100.00;97178.66;4997322;28;20141;-86
2020/12/14 03:07:30;;;;;;;30.27;16.00;;;;;;;6.00;100.00;97182.22;4997460;28;20026;-85
2020/12/14 03:09:56;;;;;;;36.10;17.70;;;;;;;6.02;100.00;97178.66;4996587;28;20041;-86
2020/12/14 03:12:21;;;;;;;36.42;18.33;;;;;;;5.95;100.00;97176.31;4997071;28;20116;-86
2020/12/14 03:14:47;;;;;;;42.78;20.13;;;;;;;5.99;100.00;97187.63;5013985;28;20033;-86
2020/12/14 03:17:13;;;;;;;38.65;20.08;;;;;;;6.02;100.00;97194.59;4997209;28;20072;-86
2020/12/14 03:19:38;;;;;;;44.47;21.23;;;;;;;6.01;100.00;97183.09;4997400;28;20108;-86
2020/12/14 03:22:04;;;;;;;42.63;20.52;;;;;;;5.87;100.00;97181.16;4984105;28;20037;-86
2020/12/14 03:24:29;;;;;;;39.45;20.88;;;;;;;5.73;100.00;97182.69;5000513;28;20025;-87
2020/12/14 03:26:55;;;;;;;42.85;19.83;;;;;;;5.80;100.00;97186.78;5000722;28;20589;-86
2020/12/14 03:29:21;;;;;;;40.78;21.38;;;;;;;5.55;100.00;97173.84;5000292;28;20095;-86
2020/12/14 03:31:46;;;;;;;36.58;20.25;;;;;;;5.60;100.00;97181.59;4999826;28;20029;-85
2020/12/14 03:34:12;;;;;;;42.70;21.10;;;;;;;5.61;100.00;97194.78;5000083;28;20112;-86
2020/12/14 03:36:38;;;;;;;38.20;19.67;;;;;;;5.62;100.00;97206.25;4999748;28;20128;-87
2020/12/14 03:39:04;;;;;;;40.17;19.85;;;;;;;5.50;100.00;97188.25;5015813;28;20420;-85
2020/12/14 03:41:29;;;;;;;39.80;20.38;;;;;;;5.33;100.00;97191.69;5016140;28;20029;-86
2020/12/14 03:43:58;;;;;;;40.25;20.05;;;;;;;5.29;100.00;97190.97;5016241;28;20046;-86
2020/12/14 03:46:31;;;;;;;41.50;21.90;;;;;;;5.36;100.00;97194.22;5016563;28;20063;-87
2020/12/14 03:48:57;;;;;;;51.40;23.30;;;;;;;5.34;100.00;97201.38;5000764;28;20025;-86
2020/12/14 03:51:24;;;;;;;49.67;23.98;;;;;;;5.26;100.00;97185.81;4999533;28;20025;-86
2020/12/14 03:53:50;;;;;;;55.97;25.98;;;;;;;5.26;100.00;97192.94;5016194;28;20120;-86
2020/12/14 03:56:23;;;;;;;58.35;26.20;;;;;;;5.36;100.00;97194.22;5015795;28;20026;-85
2020/12/14 03:58:48;;;;;;;;;;;;;;;5.42;100.00;97210.69;5016006;28;20029;-85
2020/12/14 04:01:19;;;;;;;46.88;23.27;;;;;;;5.48;100.00;97214.84;5001222;28;19928;-85
2020/12/14 04:03:45;;;;;;;56.85;26.25;;;;;;;5.35;100.00;97193.34;4991357;28;20095;-85
2020/12/14 04:06:18;;;;;;;53.05;26.23;;;;;;;5.37;100.00;97211.84;4991270;28;20026;-86
2020/12/14 04:08:44;;;;;;;59.47;25.25;;;;;;;5.32;100.00;97197.97;5008780;28;20103;-86
2020/12/14 04:11:10;;;;;;;39.08;19.85;;;;;;;5.45;100.00;97222.94;4999644;28;20029;-86
2020/12/14 04:13:42;;;;;;;47.63;22.58;;;;;;;5.39;100.00;97207.31;4996176;28;20072;-86
2020/12/14 04:16:09;;;;;;;48.47;23.17;;;;;;;5.45;100.00;97218.50;5011661;28;20120;-85
2020/12/14 04:18:35;;;;;;;54.30;23.73;;;;;;;5.36;100.00;97218.94;4990499;28;20033;-85
2020/12/14 04:21:00;;;;;;;55.28;25.05;;;;;;;5.31;100.00;97222.75;5009121;28;20460;-85
2020/12/14 04:23:26;;;;;;;53.75;24.35;;;;;;;5.30;100.00;97231.63;4997340;28;20065;-85
2020/12/14 04:25:53;;;;;;;61.20;25.55;;;;;;;5.34;100.00;97212.00;4983005;28;20476;-85
2020/12/14 04:28:19;;;;;;;64.35;29.02;;;;;;;5.43;100.00;97227.47;5012715;28;20029;-86
2020/12/14 04:31:06;;;;;;;49.72;23.83;;;;;;;5.26;100.00;97204.38;4998549;28;20083;-85
2020/12/14 04:33:32;;;;;;;47.92;25.23;;;;;;;5.40;100.00;97238.22;4987593;28;20053;-86
2020/12/14 04:36:00;;;;;;;50.00;25.52;;;;;;;5.45;100.00;97252.13;4985882;28;20422;-85
2020/12/14 04:38:26;;;;;;;49.78;24.70;;;;;;;5.38;100.00;97248.88;5014673;28;20445;-85
2020/12/14 04:40:52;;;;;;;47.65;22.88;;;;;;;5.43;100.00;97248.69;4985590;28;20021;-86
2020/12/14 04:43:17;;;;;;;50.65;22.38;;;;;;;5.48;100.00;97244.88;4982890;28;20068;-86
2020/12/14 04:45:44;;;;;;;46.38;24.13;;;;;;;5.47;100.00;97239.66;4990987;28;20104;-86
2020/12/14 04:48:10;;;;;;;52.35;26.25;;;;;;;5.47;100.00;97258.22;4999244;28;20021;-86
2020/12/14 04:50:39;;;;;;;44.03;23.02;;;;;;;5.51;100.00;97251.84;4987691;28;20115;-85
2020/12/14 04:53:04;;;;;;;44.55;22.92;;;;;;;5.54;100.00;97250.84;4984833;28;20022;-84
2020/12/14 04:55:34;;;;;;;49.60;22.23;;;;;;;5.52;100.00;97253.56;5001639;28;20044;-87
2020/12/14 04:57:59;;;;;;;43.00;20.90;;;;;;;5.52;100.00;97253.56;4980126;28;20030;-85
2020/12/14 05:00:25;;;;;;;32.05;16.75;;;;;;;5.54;100.00;97261.47;4990090;28;20087;-86
2020/12/14 05:02:55;;;;;;;26.45;13.60;;;;;;;5.55;99.78;97271.97;5008586;28;20457;-85
2020/12/14 05:05:23;;;;;;;23.80;11.88;;;;;;;5.47;99.96;97271.50;5014014;28;20026;-85
2020/12/14 05:07:49;;;;;;;23.63;11.88;;;;;;;5.54;100.00;97280.88;5006780;28;20033;-86
2020/12/14 05:10:25;;;;;;;19.27;10.65;;;;;;;5.51;100.00;97283.66;5015009;28;20112;-88
2020/12/14 05:12:51;;;;;;;20.95;10.27;;;;;;;5.52;99.51;97288.03;5007409;28;20058;-87
2020/12/14 05:15:26;;;;;;;19.70;10.85;;;;;;;5.45;99.21;97284.81;5032135;28;20071;-86
2020/12/14 05:18:07;;;;;;;20.85;12.00;;;;;;;5.45;99.80;97283.94;5027757;28;20033;-86
2020/12/14 05:20:32;;;;;;;21.63;11.88;;;;;;;5.38;99.97;97288.66;4995562;28;20091;-87
2020/12/14 05:23:10;;;;;;;24.83;13.00;;;;;;;5.45;99.59;97299.84;5025039;28;20037;-83
2020/12/14 05:25:36;;;;;;;23.33;12.38;;;;;;;5.39;99.69;97297.47;5013233;28;20087;-86
2020/12/14 05:28:11;;;;;;;24.35;14.48;;;;;;;5.32;100.00;97288.09;5002944;28;20480;-85
2020/12/14 05:30:45;;;;;;;20.63;10.93;;;;;;;5.37;99.42;97302.00;4998618;28;20026;-86
2020/12/14 05:40:32;;;;;;;25.45;14.13;;;;;;;5.06;100.00;97265.41;4931432;29;20032;-87
2020/12/14 05:42:58;;;;;;;20.42;10.63;;;;;;;5.08;100.00;97294.47;4940819;28;20049;-86
2020/12/14 05:45:26;;;;;;;19.80;11.40;;;;;;;5.19;100.00;97324.91;4993197;28;20033;-86
2020/12/14 05:47:51;;;;;;;25.52;12.05;;;;;;;5.11;100.00;97315.56;5021451;28;20037;-87
2020/12/14 05:50:17;;;;;;;22.73;12.02;;;;;;;5.07;100.00;97313.97;5021466;28;20053;-87
2020/12/14 05:52:51;;;;;;;20.92;11.57;;;;;;;5.07;100.00;97333.41;5027748;28;20109;-87
2020/12/14 05:55:20;;;;;;;18.65;10.27;;;;;;;4.97;100.00;97329.41;5004585;28;20022;-89
2020/12/14 05:57:50;;;;;;;23.35;11.07;;;;;;;5.04;100.00;97338.84;5012866;28;20041;-86
2020/12/14 06:00:23;;;;;;;19.23;10.38;;;;;;;5.01;100.00;97346.06;5028708;28;20049;-87
2020/12/14 06:02:52;;;;;;;15.85;9.18;;;;;;;4.97;100.00;97337.38;4987837;28;20037;-88
2020/12/14 06:05:19;;;;;;;17.83;9.25;;;;;;;5.04;100.00;97351.22;4990047;28;20026;-86
2020/12/14 06:07:52;;;;;;;20.05;9.18;;;;;;;4.99;100.00;97335.50;4995015;28;20083;-86
2020/12/14 06:10:18;;;;;;;23.73;10.35;;;;;;;5.02;100.00;97343.31;4989489;28;20048;-87
2020/12/14 06:13:42;;;;;;;16.70;9.60;;;;;;;5.06;100.00;97357.31;4995472;28;20488;-87
2020/12/14 06:16:45;;;;;;;13.68;7.50;;;;;;;4.99;100.00;97354.06;4962049;28;20070;-86
2020/12/14 06:19:13;;;;;;;21.13;9.45;;;;;;;4.94;100.00;97345.47;4950326;28;20050;-85
2020/12/14 06:22:01;;;;;;;14.50;8.98;;;;;;;5.00;100.00;97365.53;4956781;28;20043;-85
2020/12/14 06:24:53;;;;;;;37.58;18.15;;;;;;;5.00;100.00;97360.22;4955991;28;20038;-86
2020/12/14 06:38:06;;;;;;;15.77;7.40;;;;;;;5.03;99.48;97355.66;4933287;29;20054;-86
2020/12/14 06:54:07;;;;;;;16.00;10.70;;;;;;;4.64;99.25;97323.78;4902952;29;20150;-88
2020/12/14 06:56:36;;;;;;;17.85;11.63;;;;;;;5.18;99.39;97393.88;4946630;28;20531;-90
2020/12/14 07:23:50;;;;;;;13.02;7.72;;;;;;;5.48;99.39;97416.41;5041413;28;20427;-88
2020/12/14 09:09:47;;;;;;;22.30;12.23;;;;;;;5.10;100.00;97465.81;5042029;28;20083;-89
2020/12/14 10:28:19;;;;;;;3.97;2.20;;;;;;;4.94;100.00;97451.47;4986015;28;20377;-87
2020/12/14 10:31:18;;;;;;;1.55;1.45;;;;;;;5.14;100.00;97477.97;5028254;28;20041;-87
2020/12/14 10:33:48;;;;;;;4.18;0.93;;;;;;;4.92;100.00;97437.41;5010311;28;20037;-86
2020/12/14 10:36:18;;;;;;;1.08;0.77;;;;;;;4.70;100.00;97418.03;5026799;28;20489;-86
2020/12/14 10:38:49;;;;;;;0.70;0.70;;;;;;;4.68;100.00;97423.38;5023836;28;20492;-87
2020/12/14 10:41:24;;;;;;;0.28;0.28;;;;;;;4.62;100.00;97404.22;5016693;28;20034;-90
2020/12/14 10:44:02;;;;;;;0.90;0.73;;;;;;;4.89;100.00;97448.97;5014809;28;20040;-89
2020/12/14 10:46:37;;;;;;;0.45;0.45;;;;;;;5.02;100.00;97461.72;5026130;28;20067;-89
2020/12/14 10:49:20;;;;;;;0.47;0.47;;;;;;;4.69;99.91;97424.22;5020546;28;20642;-89
2020/12/14 10:51:58;;;;;;;1.38;1.08;;;;;;;4.68;100.00;97431.31;5021794;28;20041;-88
2020/12/14 10:55:04;;;;;;;3.40;1.08;;;;;;;4.93;100.00;97477.09;5019115;28;20148;-87
2020/12/14 10:57:31;;;;;;;0.45;0.30;;;;;;;4.45;100.00;97410.22;5036929;28;20430;-87
2020/12/14 11:00:03;;;;;;;0.80;0.73;;;;;;;4.72;99.79;97455.91;5010315;28;20055;-89
2020/12/14 11:02:29;;;;;;;1.58;0.57;;;;;;;4.88;100.00;97472.91;5021028;28;20044;-87
2020/12/14 11:04:54;;;;;;;0.63;0.63;;;;;;;4.74;100.00;97462.84;5036380;28;20041;-87
2020/12/14 11:07:23;;;;;;;0.40;0.40;;;;;;;4.83;100.00;97462.47;5011952;28;20108;-90
2020/12/14 11:09:49;;;;;;;0.63;0.52;;;;;;;4.95;100.00;97478.81;5030735;28;20047;-90
2020/12/14 11:12:14;;;;;;;0.50;0.50;;;;;;;4.90;100.00;97461.31;5032318;28;20124;-89
2020/12/14 11:14:40;;;;;;;7.95;1.67;;;;;;;5.08;100.00;97483.53;5027137;28;20469;-88
2020/12/14 11:17:06;;;;;;;1.33;0.90;;;;;;;5.12;100.00;97484.28;5035904;28;20044;-88
2020/12/14 11:22:53;;;;;;;1.05;0.93;;;;;;;4.74;99.46;97451.38;5053643;28;20047;-87
2020/12/14 11:25:19;;;;;;;1.77;1.05;;;;;;;4.88;100.00;97473.78;5018864;28;20040;-86
2020/12/14 11:27:45;;;;;;;0.90;0.88;;;;;;;4.81;99.07;97476.72;5015134;28;20037;-90
2020/12/14 11:30:10;;;;;;;1.00;0.98;;;;;;;4.77;99.59;97483.06;5008317;28;20038;-89
2020/12/14 11:32:36;;;;;;;1.33;1.00;;;;;;;4.74;99.42;97475.22;5027363;28;20047;-88
2020/12/14 11:35:02;;;;;;;0.50;0.50;;;;;;;4.69;99.59;97467.50;5014653;28;20036;-87
2020/12/14 11:37:28;;;;;;;1.13;0.90;;;;;;;4.65;99.31;97480.91;5015013;28;20033;-86
2020/12/14 11:39:53;;;;;;;0.55;0.47;;;;;;;4.70;100.00;97482.47;5015676;28;20501;-87
2020/12/14 11:42:19;;;;;;;1.08;0.63;;;;;;;4.75;100.00;97484.91;5015537;28;20038;-86
2020/12/14 11:44:45;;;;;;;2.05;1.85;;;;;;;4.65;99.89;97476.47;5015177;28;20033;-86
2020/12/14 11:47:10;;;;;;;0.60;0.60;;;;;;;4.74;100.00;97473.44;5014252;28;20123;-87
2020/12/14 11:49:36;;;;;;;1.38;0.73;;;;;;;4.90;100.00;97492.25;5015404;28;20045;-86
2020/12/14 11:52:02;;;;;;;2.58;1.35;;;;;;;4.96;99.87;97489.34;5015017;28;20041;-88
2020/12/14 11:54:28;;;;;;;1.08;0.50;;;;;;;4.87;100.00;97479.13;5015696;28;20040;-87
2020/12/14 11:56:55;;;;;;;0.32;0.32;;;;;;;4.88;99.47;97489.69;5015218;28;20048;-76
2020/12/14 11:59:20;;;;;;;0.68;0.60;;;;;;;4.99;100.00;97493.66;5030964;28;20037;-78
2020/12/14 12:01:46;;;;;;;0.40;0.40;;;;;;;5.01;100.00;97487.41;5031450;28;20033;-77
2020/12/14 12:04:12;;;;;;;0.80;0.43;;;;;;;4.98;98.91;97494.59;5034017;28;20034;-87
2020/12/14 12:06:39;;;;;;;0.47;0.47;;;;;;;4.74;99.18;97486.69;5015271;28;20045;-87
2020/12/14 12:09:04;;;;;;;0.25;0.20;;;;;;;4.75;100.00;97499.03;5015131;28;20049;-85
2020/12/14 12:11:33;;;;;;;0.63;0.63;;;;;;;4.64;100.00;97488.00;5015877;28;20125;-86
2020/12/14 12:13:58;;;;;;;1.02;0.98;;;;;;;4.66;100.00;97504.69;5031687;28;20037;-87
2020/12/14 12:16:24;;;;;;;0.90;0.85;;;;;;;4.75;100.00;97506.09;5032339;28;20042;-86
2020/12/14 12:18:50;;;;;;;0.47;0.38;;;;;;;4.77;100.00;97501.59;5032150;28;20045;-87
2020/12/14 12:21:18;;;;;;;0.40;0.40;;;;;;;4.72;100.00;97490.34;5032605;28;20048;-89
2020/12/14 12:23:44;;;;;;;0.32;0.32;;;;;;;4.86;100.00;97501.25;5015052;28;20052;-88
2020/12/14 12:26:10;;;;;;;1.02;0.93;;;;;;;4.88;100.00;97496.75;5033425;28;20137;-86
2020/12/14 12:28:36;;;;;;;1.25;1.15;;;;;;;4.95;100.00;97511.50;5015457;28;20124;-89
2020/12/14 12:31:02;;;;;;;0.38;0.38;;;;;;;4.92;100.00;97493.91;5015810;28;20048;-90
2020/12/14 12:33:28;;;;;;;1.13;0.55;;;;;;;5.03;100.00;97506.72;5019691;28;20037;-86
2020/12/14 12:39:17;;;;;;;0.98;0.98;;;;;;;4.97;100.00;97495.50;5046817;28;20055;-86
2020/12/14 12:41:52;;;;;;;1.08;1.08;;;;;;;4.95;100.00;97497.38;5035360;28;20033;-86
2020/12/14 12:44:18;;;;;;;2.17;1.85;;;;;;;4.95;100.00;97478.81;5015001;28;20095;-86
2020/12/14 12:46:45;;;;;;;5.00;1.52;;;;;;;5.06;100.00;97506.59;5015009;28;20147;-89
2020/12/14 12:49:11;;;;;;;2.10;1.73;;;;;;;5.10;100.00;97508.22;5014782;28;20111;-86
2020/12/14 12:51:36;;;;;;;1.55;1.30;;;;;;;5.00;100.00;97519.25;5029262;28;20049;-86
2020/12/14 12:54:03;;;;;;;2.45;2.25;;;;;;;5.02;100.00;97525.34;5013429;28;20107;-85
2020/12/14 12:56:29;;;;;;;3.63;2.75;;;;;;;5.04;100.00;97520.84;5028708;28;20041;-84
2020/12/14 12:58:55;;;;;;;4.47;1.52;;;;;;;5.07;100.00;97516.28;5009114;28;20033;-86
2020/12/14 13:01:24;;;;;;;10.00;4.63;;;;;;;4.91;100.00;97507.22;5006285;28;20049;-86
2020/12/14 13:03:49;;;;;;;14.20;3.55;;;;;;;5.02;100.00;97528.84;5030478;28;20459;-86
2020/12/14 13:06:15;;;;;;;4.20;3.10;;;;;;;5.07;100.00;97537.50;5015092;28;20030;-85
2020/12/14 13:08:40;;;;;;;3.03;1.60;;;;;;;4.95;99.99;97526.53;5014086;28;20049;-87
2020/12/14 13:11:06;;;;;;;0.82;0.82;;;;;;;4.90;100.00;97540.81;5015178;28;20436;-84
2020/12/14 13:13:32;;;;;;;3.63;1.40;;;;;;;5.04;100.00;97542.06;5013645;28;20037;-83
2020/12/14 13:16:00;;;;;;;3.33;1.45;;;;;;;4.79;100.00;97513.91;5030279;28;20087;-85
2020/12/14 13:18:26;;;;;;;1.90;1.20;;;;;;;4.85;100.00;97531.31;5028310;28;20048;-88
2020/12/14 13:20:52;;;;;;;3.15;2.78;;;;;;;4.99;100.00;97547.53;5010918;28;20042;-87
2020/12/14 13:23:17;;;;;;;2.53;1.63;;;;;;;5.02;100.00;97554.50;5011954;28;20077;-86
2020/12/14 13:25:43;;;;;;;0.98;0.90;;;;;;;4.91;100.00;97553.16;5013405;28;20439;-87
2020/12/14 13:28:09;;;;;;;1.15;0.63;;;;;;;4.95;100.00;97568.94;5013952;28;20033;-87
2020/12/14 13:30:34;;;;;;;2.15;1.55;;;;;;;4.91;100.00;97557.59;5011235;28;20045;-84
2020/12/14 13:33:03;;;;;;;3.92;1.67;;;;;;;4.75;100.00;97541.41;4995023;28;20124;-85
2020/12/14 13:36:08;;;;;;;2.17;1.65;;;;;;;4.62;100.00;97518.09;4994003;28;20037;-86
2020/12/14 13:38:35;;;;;;;5.78;2.88;;;;;;;4.65;100.00;97537.41;4988279;28;20332;-88
2020/12/14 13:41:22;;;;;;;2.17;1.95;;;;;;;4.88;100.00;97586.84;5009681;28;20068;-88
2020/12/14 13:43:51;;;;;;;20.38;3.80;;;;;;;4.54;100.00;97515.78;4996471;28;20127;-86
2020/12/14 13:46:20;;;;;;;5.63;3.58;;;;;;;4.56;100.00;97521.84;4996406;28;20421;-86
2020/12/14 13:49:12;;;;;;;15.52;4.70;;;;;;;4.75;100.00;97559.97;4994216;28;20042;-86
2020/12/14 13:51:40;;;;;;;2.13;1.60;;;;;;;4.60;100.00;97552.59;4993870;28;20111;-86
2020/12/14 13:54:43;;;;;;;5.00;3.10;;;;;;;4.74;100.00;97575.91;5012882;28;20456;-87
2020/12/14 14:00:44;;;;;;;3.80;3.10;;;;;;;4.34;100.00;97531.53;5009974;28;20051;-86
2020/12/14 14:04:09;;;;;;;11.63;4.15;;;;;;;4.46;100.00;97556.72;5006148;28;20034;-85
2020/12/14 14:07:59;;;;;;;4.65;3.67;;;;;;;4.53;100.00;97553.75;5003230;28;20033;-85
2020/12/14 14:13:49;;;;;;;6.85;3.60;;;;;;;4.51;100.00;97557.38;5017436;28;20497;-88
2020/12/14 14:16:57;;;;;;;4.80;3.97;;;;;;;4.79;100.00;97598.69;4996972;28;20139;-87
2020/12/14 14:19:34;;;;;;;2.75;2.42;;;;;;;4.81;100.00;97617.16;5026983;28;20045;-87
2020/12/14 14:22:29;;;;;;;5.20;3.90;;;;;;;4.38;100.00;97552.56;4996476;28;20385;-87
2020/12/14 14:25:07;;;;;;;12.25;4.97;;;;;;;4.57;100.00;97587.16;5012284;28;20029;-86
2020/12/14 14:31:48;;;;;;;4.07;3.53;;;;;;;4.32;100.00;97565.16;5020776;28;20053;-87
2020/12/14 14:35:06;;;;;;;9.38;4.82;;;;;;;4.62;100.00;97624.06;4983937;28;20045;-89
2020/12/14 14:38:33;;;;;;;3.63;3.33;;;;;;;4.55;100.00;97623.44;5009690;28;20033;-87
2020/12/14 14:41:34;;;;;;;17.38;5.38;;;;;;;4.16;100.00;97566.63;5006975;28;20409;-87
2020/12/14 14:44:00;;;;;;;5.18;3.00;;;;;;;4.46;100.00;97612.31;4988672;28;20726;-80
2020/12/14 14:57:29;;;;;;;8.00;4.97;;;;;;;4.51;100.00;97637.72;5009019;28;20480;-84
2020/12/14 15:04:38;;;;;;;4.72;3.58;;;;;;;4.17;100.00;97578.94;4960979;29;20050;-88
2020/12/14 15:20:35;;;;;;;5.40;3.20;;;;;;;3.95;100.00;97583.28;4985616;28;20084;-86
2020/12/14 15:33:33;;;;;;;5.57;3.30;;;;;;;4.30;100.00;97654.38;4922757;29;20050;-79
2020/12/14 15:36:48;;;;;;;11.48;4.18;;;;;;;4.22;100.00;97659.06;4907696;29;20560;-86
2020/12/14 15:46:02;;;;;;;7.95;4.30;;;;;;;4.25;100.00;97672.19;5003355;28;20038;-87
2020/12/14 15:48:28;;;;;;;9.00;3.40;;;;;;;4.22;100.00;97678.44;4961855;28;20129;-86
2020/12/14 15:50:53;;;;;;;3.42;2.40;;;;;;;4.13;100.00;97659.38;4976971;28;20133;-85
2020/12/14 15:53:19;;;;;;;1.75;1.60;;;;;;;4.25;100.00;97688.94;4985709;28;20040;-85
2020/12/14 15:55:45;;;;;;;5.72;4.15;;;;;;;4.24;100.00;97676.63;5019079;28;20186;-86
2020/12/14 15:58:13;;;;;;;4.78;3.45;;;;;;;4.31;100.00;97685.19;5035745;28;20449;-85
2020/12/14 16:00:40;;;;;;;5.50;3.78;;;;;;;4.40;100.00;97692.81;5017927;28;20106;-86
2020/12/14 16:03:06;;;;;;;8.13;3.08;;;;;;;4.39;100.00;97693.75;5018366;28;20067;-87
2020/12/14 16:05:32;;;;;;;4.88;2.58;;;;;;;4.29;100.00;97681.75;5018350;28;20041;-90
2020/12/14 16:07:58;;;;;;;3.55;3.00;;;;;;;4.28;100.00;97693.25;5019005;28;20049;-87
2020/12/14 16:10:33;;;;;;;3.85;3.30;;;;;;;4.21;100.00;97691.75;5035915;28;20037;-87
2020/12/14 16:12:59;;;;;;;10.80;4.72;;;;;;;4.16;100.00;97694.53;5034643;28;20103;-87
2020/12/14 16:15:25;;;;;;;5.65;4.53;;;;;;;4.19;100.00;97699.72;5017811;28;20515;-82
2020/12/14 16:17:51;;;;;;;24.83;4.72;;;;;;;4.19;100.00;97707.66;5017963;28;20036;-86
2020/12/14 16:20:17;;;;;;;6.60;3.72;;;;;;;4.02;100.00;97707.41;5035369;28;20509;-87
2020/12/14 16:22:44;;;;;;;3.67;2.40;;;;;;;3.95;100.00;97705.00;5018842;28;20048;-79
2020/12/14 16:25:11;;;;;;;9.90;3.08;;;;;;;3.93;100.00;97699.75;5051405;28;20028;-87
2020/12/14 16:27:37;;;;;;;5.07;3.42;;;;;;;4.03;100.00;97714.41;5018439;28;20037;-86
2020/12/14 16:30:08;;;;;;;4.22;3.83;;;;;;;3.86;100.00;97711.47;5016003;28;20496;-85
2020/12/14 16:32:34;;;;;;;9.68;3.67;;;;;;;3.89;100.00;97721.06;5011958;28;20072;-88
2020/12/14 16:35:03;;;;;;;5.10;3.38;;;;;;;3.88;100.00;97724.66;5018414;28;20044;-85
2020/12/14 16:37:28;;;;;;;4.72;2.90;;;;;;;3.91;100.00;97724.56;5034612;28;20052;-81
2020/12/14 16:40:04;;;;;;;7.63;3.25;;;;;;;3.93;100.00;97717.41;5034181;28;20041;-81
2020/12/14 16:42:31;;;;;;;3.13;2.20;;;;;;;3.93;100.00;97720.94;5021209;28;20036;-90
2020/12/14 16:44:57;;;;;;;12.88;4.93;;;;;;;3.93;100.00;97720.06;5035425;28;20860;-78
2020/12/14 16:47:22;;;;;;;6.38;3.08;;;;;;;3.94;100.00;97720.00;5034127;28;20107;-77
2020/12/14 16:49:50;;;;;;;5.68;4.35;;;;;;;4.06;100.00;97731.97;5032644;28;20705;-78
2020/12/14 16:52:15;;;;;;;5.03;4.18;;;;;;;4.09;100.00;97739.81;5015475;28;20037;-77
2020/12/14 16:54:41;;;;;;;6.18;4.43;;;;;;;4.04;100.00;97729.38;5032656;28;20040;-80
2020/12/14 16:57:16;;;;;;;5.07;4.07;;;;;;;4.03;100.00;97732.09;5053829;28;20044;-87
2020/12/14 16:59:43;;;;;;;5.07;4.47;;;;;;;3.99;100.00;97736.59;5022100;28;20472;-89
2020/12/14 17:02:11;;;;;;;8.23;4.25;;;;;;;3.96;100.00;97730.53;5019182;28;20463;-80
2020/12/14 17:07:25;;;;;;;4.22;3.50;;;;;;;3.91;100.00;97725.38;5034266;28;20041;-85
2020/12/14 17:09:54;;;;;;;3.88;3.58;;;;;;;4.18;100.00;97755.38;5019467;28;20416;-84